Time;durP1;ratioP1;P1;durP2;ratioP2;P2;SDS_P1;SDS_P2;PMS_P1;PMS_P2;Temp;Humidity;BMP_temperature;BMP_pressure;BME280_temperature;BME280_humidity;BME280_pressure;Samples;Min_cycle;Max_cycle;Signal;HPM_P1;HPM_P2
2023/03/11 00:00:32;;;;;;;16.77;5.70;;;;;;;16.88;67.50;99089.06;4992789;28;20045;-83
2023/03/11 00:03:00;;;;;;;18.58;5.35;;;;;;;16.82;67.18;99089.88;4993699;28;20058;-82
2023/03/11 00:05:31;;;;;;;20.38;5.50;;;;;;;16.70;67.57;99096.94;4989549;28;20501;-84
2023/03/11 00:07:57;;;;;;;38.17;6.55;;;;;;;16.56;68.79;99096.03;4986997;28;20037;-83
2023/03/11 00:10:34;;;;;;;23.98;5.65;;;;;;;16.56;70.46;99103.34;4996482;28;20042;-83
2023/03/11 00:13:00;;;;;;;18.77;6.05;;;;;;;16.64;70.90;99095.03;4993697;28;20053;-83
2023/03/11 00:15:27;;;;;;;20.23;4.88;;;;;;;16.61;71.58;99100.84;4996040;28;20034;-82
2023/03/11 00:17:52;;;;;;;20.83;5.50;;;;;;;16.71;71.04;99104.88;4991743;28;20034;-82
2023/03/11 00:20:27;;;;;;;28.25;5.28;;;;;;;16.80;71.12;99102.84;4975249;28;20039;-81
2023/03/11 00:22:54;;;;;;;23.10;5.80;;;;;;;16.87;70.63;99101.00;4990919;28;20026;-83
2023/03/11 00:25:22;;;;;;;19.02;4.60;;;;;;;16.93;70.59;99089.31;4992289;28;20100;-83
2023/03/11 00:27:48;;;;;;;22.20;4.93;;;;;;;16.99;70.10;99091.22;4994995;28;20039;-81
2023/03/11 00:30:15;;;;;;;26.60;5.40;;;;;;;17.02;70.29;99089.97;4992414;28;20041;-85
2023/03/11 00:32:41;;;;;;;17.00;5.20;;;;;;;17.03;70.07;99083.53;4989230;28;20038;-83
2023/03/11 00:35:08;;;;;;;23.75;5.63;;;;;;;17.04;69.98;99060.72;5005011;28;20557;-82
2023/03/11 00:37:33;;;;;;;20.17;5.43;;;;;;;17.08;70.43;99060.13;5007387;28;20024;-81
2023/03/11 00:39:59;;;;;;;17.80;4.65;;;;;;;17.20;70.26;99065.78;4999573;28;20090;-81
2023/03/11 00:42:25;;;;;;;19.42;4.72;;;;;;;17.22;69.96;99056.41;4990578;28;20026;-82
2023/03/11 00:44:50;;;;;;;19.65;4.47;;;;;;;17.36;69.56;99065.44;4972752;28;20065;-83
2023/03/11 00:47:16;;;;;;;23.05;4.53;;;;;;;17.42;69.46;99049.13;4973163;28;20042;-82
2023/03/11 00:49:42;;;;;;;14.70;4.70;;;;;;;17.47;69.35;99051.22;4972710;28;20105;-82
2023/03/11 00:52:07;;;;;;;20.30;4.63;;;;;;;17.54;68.91;99051.22;4972725;28;20019;-82
2023/03/11 00:54:33;;;;;;;23.00;4.72;;;;;;;17.61;68.48;99036.63;4977152;28;20031;-81
2023/03/11 00:56:58;;;;;;;18.73;4.13;;;;;;;17.68;68.44;99036.63;4991879;28;20018;-81
2023/03/11 00:59:24;;;;;;;20.90;4.32;;;;;;;17.71;68.21;99045.19;4991883;28;20030;-82
2023/03/11 01:01:50;;;;;;;18.60;4.57;;;;;;;17.71;67.93;99036.19;4991669;28;20034;-82
2023/03/11 01:04:15;;;;;;;14.18;5.03;;;;;;;17.78;68.26;99031.59;4970931;28;20109;-82
2023/03/11 01:06:40;;;;;;;21.25;5.95;;;;;;;17.79;67.93;99025.13;4972853;28;20030;-82
2023/03/11 01:09:06;;;;;;;31.10;5.82;;;;;;;17.80;67.85;99014.03;4971595;28;20037;-81
2023/03/11 01:11:31;;;;;;;24.08;5.47;;;;;;;17.81;67.45;99020.31;4972052;28;20023;-81
2023/03/11 01:13:57;;;;;;;22.75;5.18;;;;;;;17.67;67.80;99015.94;4971914;28;20037;-82
2023/03/11 01:16:23;;;;;;;21.52;5.00;;;;;;;17.68;67.73;99020.31;4971932;28;20112;-81
2023/03/11 01:18:48;;;;;;;20.50;5.05;;;;;;;17.67;67.31;99007.78;4989107;28;20478;-82
2023/03/11 01:21:14;;;;;;;26.90;6.18;;;;;;;17.64;66.77;99002.75;4990986;28;20030;-81
2023/03/11 01:23:40;;;;;;;30.65;6.68;;;;;;;17.51;66.30;99013.59;4991774;28;20386;-81
2023/03/11 01:26:06;;;;;;;25.92;6.38;;;;;;;17.16;66.34;99000.16;4990970;28;20031;-82
2023/03/11 01:28:32;;;;;;;32.55;6.50;;;;;;;16.98;67.45;98999.09;4991854;28;20056;-82
2023/03/11 01:30:57;;;;;;;26.38;7.30;;;;;;;16.85;67.79;98998.00;4991456;28;20022;-83
2023/03/11 01:33:23;;;;;;;30.15;7.50;;;;;;;16.79;68.32;99000.69;4985438;28;20042;-82
2023/03/11 01:35:48;;;;;;;24.23;5.63;;;;;;;16.50;69.12;98999.13;4986608;28;20498;-81
2023/03/11 01:38:14;;;;;;;19.88;6.03;;;;;;;16.46;69.06;98978.00;4983854;28;20109;-83
2023/03/11 01:40:46;;;;;;;35.78;7.95;;;;;;;16.49;69.35;98996.59;4971312;28;20070;-82
2023/03/11 01:43:39;;;;;;;26.92;6.85;;;;;;;16.46;69.69;98997.00;4969482;28;20038;-84
2023/03/11 01:46:18;;;;;;;24.52;5.28;;;;;;;16.37;69.89;98988.19;4971803;28;20031;-83
2023/03/11 01:48:47;;;;;;;19.00;5.30;;;;;;;16.41;69.76;98985.91;4987452;28;20030;-83
2023/03/11 01:51:14;;;;;;;19.70;5.30;;;;;;;16.43;69.57;98981.13;4972579;28;20035;-82
2023/03/11 01:53:40;;;;;;;24.20;5.95;;;;;;;16.50;69.41;98995.56;4971380;28;20510;-82
2023/03/11 01:56:06;;;;;;;26.02;6.15;;;;;;;16.24;69.93;98967.25;4971827;28;20027;-82
2023/03/11 01:58:36;;;;;;;16.42;5.13;;;;;;;16.31;70.83;98986.28;4971219;28;20143;-82
2023/03/11 02:01:03;;;;;;;17.13;5.45;;;;;;;16.29;70.67;98975.66;4971724;28;20086;-81
2023/03/11 02:03:30;;;;;;;21.45;5.55;;;;;;;16.23;72.09;98986.47;4971526;28;20022;-82
2023/03/11 02:05:58;;;;;;;27.33;6.30;;;;;;;16.29;72.42;98983.78;4972682;28;20038;-81
2023/03/11 02:08:24;;;;;;;24.75;5.60;;;;;;;16.38;72.08;98972.75;4972563;28;20399;-83
2023/03/11 02:10:52;;;;;;;24.95;6.88;;;;;;;16.53;71.99;98984.28;4971326;28;20041;-82
2023/03/11 02:13:18;;;;;;;27.13;6.05;;;;;;;16.57;71.72;98963.91;4973634;28;20545;-82
2023/03/11 02:15:44;;;;;;;34.35;6.57;;;;;;;16.58;72.36;98962.84;4973594;28;20045;-83
2023/03/11 02:18:13;;;;;;;27.15;5.97;;;;;;;16.67;71.94;98961.59;4987727;28;20011;-81
2023/03/11 02:20:53;;;;;;;35.42;5.65;;;;;;;16.68;71.88;98952.44;4995974;28;20030;-81
2023/03/11 02:23:23;;;;;;;27.85;6.05;;;;;;;16.74;71.93;98957.03;4989853;28;20049;-82
2023/03/11 02:26:01;;;;;;;29.35;5.97;;;;;;;16.78;71.94;98958.31;4977727;28;20027;-81
2023/03/11 02:28:27;;;;;;;28.20;6.22;;;;;;;16.80;71.40;98956.22;4974941;28;20050;-83
2023/03/11 02:30:55;;;;;;;34.03;7.70;;;;;;;16.80;71.10;98964.38;4974109;28;20113;-82
2023/03/11 02:33:23;;;;;;;24.27;5.00;;;;;;;16.82;71.07;98963.13;4985641;28;20031;-80
2023/03/11 02:35:49;;;;;;;24.70;5.35;;;;;;;16.73;70.67;98952.66;4984097;28;20027;-81
2023/03/11 02:38:14;;;;;;;19.30;5.78;;;;;;;16.63;71.48;98949.50;4981047;28;20035;-82
2023/03/11 02:40:57;;;;;;;28.08;5.45;;;;;;;16.69;71.23;98944.09;4990682;28;20054;-82
2023/03/11 02:43:32;;;;;;;22.95;6.00;;;;;;;16.72;70.63;98946.41;4978535;28;20041;-81
2023/03/11 02:45:58;;;;;;;38.13;6.43;;;;;;;16.70;70.33;98951.19;4968794;28;20043;-81
2023/03/11 02:48:24;;;;;;;18.73;5.32;;;;;;;16.60;69.90;98939.06;4970739;28;20026;-82
2023/03/11 02:50:51;;;;;;;28.67;5.35;;;;;;;16.54;70.05;98939.84;4971205;28;20042;-82
2023/03/11 02:53:16;;;;;;;30.92;5.63;;;;;;;16.46;70.27;98935.41;4976701;28;20018;-83
2023/03/11 02:55:41;;;;;;;21.50;5.38;;;;;;;16.32;70.47;98926.41;4990500;28;20057;-83
2023/03/11 02:58:07;;;;;;;29.33;6.32;;;;;;;16.25;71.03;98920.13;4990203;28;20022;-82
2023/03/11 03:00:33;;;;;;;29.20;6.10;;;;;;;16.14;71.10;98907.16;4990070;28;20422;-83
2023/03/11 03:02:58;;;;;;;19.35;6.85;;;;;;;16.11;71.96;98912.13;4990492;28;20401;-84
2023/03/11 03:05:24;;;;;;;25.17;6.03;;;;;;;16.11;72.14;98912.97;4974652;28;20516;-83
2023/03/11 03:07:50;;;;;;;25.45;5.00;;;;;;;15.98;72.82;98914.78;4970809;28;20475;-82
2023/03/11 03:10:18;;;;;;;14.10;5.13;;;;;;;15.98;72.76;98912.06;4970390;28;20463;-80
2023/03/11 03:12:44;;;;;;;16.02;5.70;;;;;;;16.11;72.61;98918.41;4970879;28;20031;-81
2023/03/11 03:15:10;;;;;;;22.10;6.55;;;;;;;16.11;72.41;98907.56;4971028;28;20035;-83
2023/03/11 03:17:37;;;;;;;31.65;6.32;;;;;;;16.15;72.42;98906.09;4970790;28;20114;-82
2023/03/11 03:20:06;;;;;;;20.40;4.50;;;;;;;16.19;72.07;98901.94;4985972;28;20038;-83
2023/03/11 03:22:31;;;;;;;31.33;6.28;;;;;;;16.26;71.89;98905.53;4989791;28;20027;-83
2023/03/11 03:24:57;;;;;;;26.05;5.50;;;;;;;16.31;71.80;98903.03;4971453;28;20039;-81
2023/03/11 03:27:22;;;;;;;20.45;5.40;;;;;;;16.30;71.29;98890.50;4970881;28;20033;-81
2023/03/11 03:29:47;;;;;;;18.23;6.03;;;;;;;16.27;71.11;98895.47;4970770;28;20042;-82
2023/03/11 03:32:13;;;;;;;15.82;4.72;;;;;;;16.29;71.18;98883.41;4983868;28;20057;-81
2023/03/11 03:34:38;;;;;;;30.98;4.97;;;;;;;16.31;70.90;98881.31;5001992;28;20089;-81
2023/03/11 03:37:04;;;;;;;23.17;5.95;;;;;;;16.36;71.00;98882.59;4999938;28;20042;-81
2023/03/11 03:39:32;;;;;;;17.73;5.03;;;;;;;16.32;71.25;98872.16;4994056;28;20038;-83
2023/03/11 03:41:57;;;;;;;27.98;6.18;;;;;;;16.28;71.22;98870.03;4993454;28;20077;-83
2023/03/11 03:44:23;;;;;;;15.80;5.38;;;;;;;16.21;71.17;98875.44;4993225;28;20498;-82
2023/03/11 03:46:48;;;;;;;18.77;5.55;;;;;;;16.18;71.16;98853.31;4993158;28;20104;-83
2023/03/11 03:49:14;;;;;;;45.00;9.23;;;;;;;16.13;71.42;98848.50;4985958;28;20026;-81
2023/03/11 03:51:39;;;;;;;23.23;6.90;;;;;;;16.11;71.54;98858.72;4975526;28;20030;-82
2023/03/11 03:54:04;;;;;;;24.75;6.47;;;;;;;16.09;71.70;98858.06;4975132;28;20034;-83
2023/03/11 03:56:30;;;;;;;18.58;5.13;;;;;;;16.04;71.61;98863.28;4974318;28;20027;-81
2023/03/11 03:58:55;;;;;;;14.85;4.80;;;;;;;16.00;71.87;98861.16;4973601;28;20027;-83
2023/03/11 04:01:21;;;;;;;21.25;5.93;;;;;;;16.07;71.91;98871.00;4973829;28;20025;-82
2023/03/11 04:03:46;;;;;;;17.00;5.50;;;;;;;16.06;71.81;98872.03;4976343;28;20035;-82
2023/03/11 04:06:20;;;;;;;16.15;4.80;;;;;;;16.00;72.26;98872.00;4976838;28;20050;-82
2023/03/11 04:08:46;;;;;;;19.88;6.05;;;;;;;16.04;72.10;98865.16;4976853;28;20042;-81
2023/03/11 04:11:11;;;;;;;12.00;4.78;;;;;;;16.05;71.88;98864.97;4988600;28;20054;-82
2023/03/11 04:13:37;;;;;;;18.42;6.00;;;;;;;16.06;71.90;98861.19;4999502;28;20100;-82
2023/03/11 04:16:04;;;;;;;26.75;5.70;;;;;;;16.12;72.31;98860.38;4977555;28;20023;-83
2023/03/11 04:18:30;;;;;;;21.80;7.72;;;;;;;16.17;71.62;98860.63;4976362;28;20121;-82
2023/03/11 04:20:55;;;;;;;20.77;7.20;;;;;;;16.16;71.65;98842.69;4983266;28;20482;-82
2023/03/11 04:23:21;;;;;;;22.65;6.07;;;;;;;16.04;71.38;98836.16;4983125;28;20030;-81
2023/03/11 04:25:46;;;;;;;19.35;5.68;;;;;;;15.95;71.92;98831.13;4988684;28;20035;-82
2023/03/11 04:28:12;;;;;;;26.17;7.18;;;;;;;15.93;71.83;98827.78;4978783;28;20056;-81
2023/03/11 04:30:38;;;;;;;22.42;6.30;;;;;;;15.85;71.68;98831.50;4982320;28;20025;-82
2023/03/11 04:33:04;;;;;;;23.58;6.00;;;;;;;15.59;72.71;98825.97;4989456;28;20035;-81
2023/03/11 04:35:29;;;;;;;25.10;6.38;;;;;;;15.58;72.57;98824.28;4983019;28;20058;-81
2023/03/11 04:37:54;;;;;;;24.08;7.70;;;;;;;15.47;73.26;98822.13;4972356;28;20026;-81
2023/03/11 04:40:20;;;;;;;27.48;9.18;;;;;;;15.15;74.54;98805.47;4972890;28;20055;-81
2023/03/11 04:42:46;;;;;;;46.15;15.82;;;;;;;14.99;75.69;98797.63;4974013;28;20089;-82
2023/03/11 04:45:12;;;;;;;69.93;18.80;;;;;;;14.86;76.41;98794.81;4980450;28;20116;-83
2023/03/11 04:47:38;;;;;;;24.65;7.50;;;;;;;15.02;76.74;98801.81;4991728;28;20065;-82
2023/03/11 04:50:04;;;;;;;28.13;7.45;;;;;;;15.18;76.35;98813.19;4991839;28;20038;-83
2023/03/11 04:52:29;;;;;;;35.83;8.05;;;;;;;15.34;76.47;98827.44;4991546;28;20025;-83
2023/03/11 04:54:54;;;;;;;29.05;6.90;;;;;;;15.45;75.85;98825.00;4992260;28;20038;-83
2023/03/11 04:57:20;;;;;;;22.95;6.65;;;;;;;15.44;75.76;98812.50;4990689;28;20486;-85
2023/03/11 04:59:46;;;;;;;24.45;6.47;;;;;;;15.50;76.05;98819.88;4979221;28;20414;-83
2023/03/11 05:02:11;;;;;;;33.08;6.68;;;;;;;15.55;76.01;98819.25;4972125;28;20410;-83
2023/03/11 05:04:37;;;;;;;28.60;7.90;;;;;;;15.66;75.94;98810.56;4972832;28;20023;-85
2023/03/11 05:07:02;;;;;;;20.55;7.07;;;;;;;15.63;75.83;98800.97;4976554;28;20487;-87
2023/03/11 05:09:27;;;;;;;38.10;7.57;;;;;;;15.80;75.47;98790.63;4973194;28;20035;-84
2023/03/11 05:11:53;;;;;;;28.50;7.43;;;;;;;15.84;75.73;98796.47;4972388;28;20026;-89
2023/03/11 05:14:18;;;;;;;17.02;6.57;;;;;;;15.90;75.71;98785.63;4973510;28;20061;-87
2023/03/11 05:16:44;;;;;;;28.10;8.35;;;;;;;16.06;75.38;98781.72;4974059;28;20069;-89
2023/03/11 05:21:53;;;;;;;25.05;5.85;;;;;;;15.84;75.65;98759.34;4975619;28;20098;-88
2023/03/11 05:24:19;;;;;;;32.63;6.97;;;;;;;15.65;75.42;98782.66;4994198;28;20043;-88
2023/03/11 05:26:44;;;;;;;24.80;7.28;;;;;;;15.61;75.76;98769.69;4996053;28;20032;-89
2023/03/11 05:29:10;;;;;;;22.10;6.47;;;;;;;15.67;75.72;98777.84;5002870;28;20130;-83
2023/03/11 05:31:35;;;;;;;23.65;7.75;;;;;;;15.65;75.76;98776.38;5016001;28;20098;-82
2023/03/11 05:34:01;;;;;;;23.08;6.70;;;;;;;15.70;75.31;98779.31;5012800;28;20120;-82
2023/03/11 05:36:26;;;;;;;24.80;8.40;;;;;;;15.65;75.76;98770.97;4992678;28;20029;-85
2023/03/11 05:38:52;;;;;;;24.13;9.38;;;;;;;15.75;75.89;98779.53;4983227;28;20070;-84
2023/03/11 05:41:18;;;;;;;24.48;7.57;;;;;;;15.83;75.89;98773.94;4992140;28;20062;-90
2023/03/11 05:43:44;;;;;;;25.23;7.43;;;;;;;15.93;75.81;98790.66;4993884;28;20030;-88
2023/03/11 05:46:10;;;;;;;17.95;6.70;;;;;;;15.92;75.33;98789.00;4992073;28;20105;-89
2023/03/11 05:48:36;;;;;;;32.42;8.23;;;;;;;15.79;75.77;98780.81;4992791;28;20034;-87
2023/03/11 05:51:12;;;;;;;35.65;8.70;;;;;;;15.81;76.72;98783.34;4991692;28;20030;-87
2023/03/11 05:53:37;;;;;;;28.92;9.75;;;;;;;15.83;76.81;98782.09;4980629;28;20174;-88
2023/03/11 05:56:04;;;;;;;30.95;7.88;;;;;;;15.93;76.77;98779.81;4973358;28;20532;-90
2023/03/11 05:58:30;;;;;;;28.08;8.88;;;;;;;16.07;76.65;98792.38;4970049;28;20130;-88
2023/03/11 06:00:58;;;;;;;26.65;8.13;;;;;;;16.20;76.76;98788.88;4973494;28;20054;-87
2023/03/11 06:03:23;;;;;;;30.75;9.45;;;;;;;16.32;76.32;98790.78;4977318;28;20155;-90
2023/03/11 06:05:49;;;;;;;27.60;7.13;;;;;;;16.36;76.21;98776.78;4981311;28;20238;-89
2023/03/11 06:08:16;;;;;;;24.00;8.25;;;;;;;16.51;76.02;98788.28;4975127;28;20053;-89
2023/03/11 06:10:41;;;;;;;27.50;7.93;;;;;;;16.58;75.67;98786.41;4974627;28;20086;-89
2023/03/11 06:13:08;;;;;;;36.30;9.02;;;;;;;16.66;75.58;98783.53;4972617;28;20129;-90
2023/03/11 06:15:34;;;;;;;22.13;8.65;;;;;;;16.70;74.77;98776.59;4978506;28;20033;-90
2023/03/11 06:18:00;;;;;;;29.75;9.02;;;;;;;16.59;75.51;98756.38;4985577;28;20445;-88
2023/03/11 06:20:27;;;;;;;48.95;10.57;;;;;;;16.76;75.43;98776.63;4977514;28;20038;-87
2023/03/11 06:22:52;;;;;;;38.30;9.20;;;;;;;16.90;74.87;98777.47;4982898;28;20137;-88
2023/03/11 06:25:18;;;;;;;41.75;8.88;;;;;;;16.83;75.13;98768.47;4997467;28;20090;-89
2023/03/11 06:27:49;;;;;;;43.97;10.55;;;;;;;17.06;74.50;98777.03;5012703;28;20045;-85
2023/03/11 06:30:15;;;;;;;34.77;8.67;;;;;;;17.15;74.15;98781.19;5014691;28;20041;-87
2023/03/11 06:32:43;;;;;;;36.50;7.90;;;;;;;17.21;74.24;98774.06;5013032;28;20030;-83
2023/03/11 06:35:09;;;;;;;28.65;6.65;;;;;;;17.17;74.12;98762.78;5021876;28;20031;-84
2023/03/11 06:37:36;;;;;;;36.28;7.60;;;;;;;17.23;73.96;98756.50;5005349;28;20022;-82
2023/03/11 06:40:01;;;;;;;36.63;7.85;;;;;;;17.27;73.80;98741.47;5003488;28;20133;-84
2023/03/11 06:42:27;;;;;;;45.35;8.43;;;;;;;17.38;73.47;98737.22;5022347;28;20049;-84
2023/03/11 06:44:52;;;;;;;36.78;8.15;;;;;;;17.49;72.34;98744.69;4999663;28;20043;-85
2023/03/11 06:47:18;;;;;;;36.75;7.63;;;;;;;17.63;71.81;98742.81;4975056;28;20038;-83
2023/03/11 06:49:43;;;;;;;32.05;7.05;;;;;;;17.72;71.30;98745.06;4971392;28;20034;-84
2023/03/11 06:52:09;;;;;;;26.10;6.32;;;;;;;17.79;70.89;98747.75;4970981;28;20035;-83
2023/03/11 06:54:34;;;;;;;30.95;6.63;;;;;;;17.87;70.69;98736.63;4971462;28;20031;-84
2023/03/11 06:57:01;;;;;;;34.65;7.55;;;;;;;17.92;70.24;98729.47;4971288;28;20031;-85
2023/03/11 06:59:27;;;;;;;39.88;7.78;;;;;;;18.07;69.65;98731.09;4969927;28;20023;-83
2023/03/11 07:01:53;;;;;;;30.02;7.55;;;;;;;17.98;69.12;98727.75;4971412;28;20030;-83
2023/03/11 07:04:19;;;;;;;36.03;6.93;;;;;;;18.03;68.96;98718.97;4969589;28;20419;-84
2023/03/11 07:06:45;;;;;;;32.42;7.40;;;;;;;17.97;68.82;98707.06;4971374;28;20023;-87
2023/03/11 07:09:10;;;;;;;33.58;7.40;;;;;;;17.98;68.97;98716.88;4974228;28;20065;-83
2023/03/11 07:11:36;;;;;;;24.60;6.18;;;;;;;18.01;68.83;98713.72;4975412;28;20031;-85
2023/03/11 07:14:01;;;;;;;42.95;8.02;;;;;;;18.16;68.54;98724.31;4974269;28;20031;-84
2023/03/11 07:16:28;;;;;;;25.55;7.25;;;;;;;18.20;68.18;98715.50;4973941;28;20027;-84
2023/03/11 07:18:59;;;;;;;48.72;7.80;;;;;;;18.23;67.32;98706.88;4976991;28;20034;-83
2023/03/11 07:21:26;;;;;;;33.60;7.18;;;;;;;18.23;67.25;98715.03;4979730;28;20114;-82
2023/03/11 07:23:53;;;;;;;31.20;7.07;;;;;;;18.30;67.39;98713.13;4974319;28;20027;-83
2023/03/11 07:26:19;;;;;;;25.30;6.30;;;;;;;18.36;67.10;98709.50;4980263;28;20030;-81
2023/03/11 07:28:45;;;;;;;22.58;6.13;;;;;;;18.43;66.52;98704.88;4992575;28;20090;-82
2023/03/11 07:31:13;;;;;;;42.88;8.38;;;;;;;18.49;65.92;98686.84;4990505;28;20056;-83
2023/03/11 07:33:38;;;;;;;26.75;6.47;;;;;;;18.56;65.75;98681.34;4974300;28;20034;-84
2023/03/11 07:36:09;;;;;;;20.10;5.28;;;;;;;18.58;65.73;98680.06;4972869;28;20034;-86
2023/03/11 07:38:35;;;;;;;26.23;5.72;;;;;;;18.68;65.25;98679.53;4974441;28;20115;-85
2023/03/11 07:41:01;;;;;;;32.42;7.60;;;;;;;18.61;65.07;98656.97;4973768;28;20126;-82
2023/03/11 07:43:26;;;;;;;27.48;5.07;;;;;;;18.82;64.25;98660.13;4976294;28;20037;-83
2023/03/11 07:45:53;;;;;;;20.40;6.38;;;;;;;18.78;64.06;98652.59;4989199;28;20031;-84
2023/03/11 07:48:19;;;;;;;20.67;5.20;;;;;;;18.89;63.50;98649.16;4979504;28;20114;-84
2023/03/11 07:50:44;;;;;;;22.77;5.38;;;;;;;18.97;62.69;98657.03;4974628;28;20170;-84
2023/03/11 07:53:10;;;;;;;27.75;6.00;;;;;;;18.95;62.29;98627.28;4974164;28;20038;-84
2023/03/11 07:55:35;;;;;;;33.17;6.70;;;;;;;18.93;62.59;98634.00;4973815;28;20027;-84
2023/03/11 07:58:00;;;;;;;23.20;5.70;;;;;;;19.00;62.27;98635.59;4973647;28;20043;-83
2023/03/11 08:00:26;;;;;;;31.13;6.00;;;;;;;18.94;61.42;98643.84;4980549;28;20054;-85
2023/03/11 08:02:52;;;;;;;36.42;6.10;;;;;;;18.88;61.21;98631.97;4987864;28;20479;-85
2023/03/11 08:05:19;;;;;;;20.90;4.68;;;;;;;18.85;60.51;98620.69;4983653;28;20031;-84
2023/03/11 08:07:45;;;;;;;25.98;6.00;;;;;;;18.98;60.81;98615.94;4985570;28;20019;-86
2023/03/11 08:10:11;;;;;;;23.95;5.35;;;;;;;19.15;60.39;98623.47;4989584;28;20089;-84
2023/03/11 08:12:36;;;;;;;28.17;6.05;;;;;;;19.15;59.99;98616.16;4982629;28;20023;-83
2023/03/11 08:15:02;;;;;;;23.73;4.72;;;;;;;19.23;59.71;98617.75;4984640;28;20520;-83
2023/03/11 08:17:28;;;;;;;19.73;4.72;;;;;;;19.28;59.15;98618.72;4981206;28;20031;-86
2023/03/11 08:19:53;;;;;;;17.27;5.03;;;;;;;19.34;58.90;98615.06;4973693;28;20482;-84
2023/03/11 08:22:19;;;;;;;35.00;6.65;;;;;;;19.48;58.54;98600.22;4974186;28;20023;-85
2023/03/11 08:24:44;;;;;;;20.38;5.53;;;;;;;19.45;58.37;98605.28;4974267;28;20376;-84
2023/03/11 08:27:11;;;;;;;37.75;7.53;;;;;;;19.66;57.98;98606.69;4992981;28;20086;-81
2023/03/11 08:29:36;;;;;;;31.38;8.00;;;;;;;19.60;57.04;98618.53;4995029;28;20035;-81
2023/03/11 08:32:02;;;;;;;68.90;12.73;;;;;;;19.52;57.33;98627.84;4984969;28;20035;-88
2023/03/11 08:34:28;;;;;;;44.88;6.82;;;;;;;19.28;58.48;98604.25;4988900;28;20498;-86
2023/03/11 08:36:54;;;;;;;16.42;4.50;;;;;;;19.31;58.02;98599.16;4982481;28;20070;-87
2023/03/11 08:39:19;;;;;;;17.23;4.53;;;;;;;19.49;57.99;98592.88;4979219;28;20069;-87
2023/03/11 08:41:45;;;;;;;29.95;5.13;;;;;;;19.42;57.77;98587.50;4975217;28;20069;-86
2023/03/11 08:44:10;;;;;;;25.95;5.10;;;;;;;19.46;58.14;98598.78;4976968;28;20027;-86
2023/03/11 08:46:37;;;;;;;26.17;7.05;;;;;;;19.61;57.89;98596.47;4993510;28;20015;-84
2023/03/11 08:49:04;;;;;;;50.05;11.30;;;;;;;19.55;57.34;98589.22;4973678;28;20030;-86
2023/03/11 08:51:31;;;;;;;24.38;6.03;;;;;;;19.66;57.32;98579.44;4973875;28;20031;-86
2023/03/11 08:53:58;;;;;;;42.60;5.80;;;;;;;19.76;57.21;98585.97;4973305;28;20026;-86
2023/03/11 08:56:23;;;;;;;26.30;5.65;;;;;;;19.90;57.11;98589.31;4975657;28;20691;-85
2023/03/11 08:58:49;;;;;;;33.30;8.77;;;;;;;20.02;56.50;98591.00;4978562;28;20082;-87
2023/03/11 09:01:15;;;;;;;44.95;11.25;;;;;;;19.83;55.79;98597.63;4979650;28;20035;-87
2023/03/11 09:03:40;;;;;;;36.63;6.82;;;;;;;19.39;56.45;98585.25;4978535;28;20085;-85
2023/03/11 09:06:10;;;;;;;52.97;8.43;;;;;;;18.95;57.45;98577.44;4976868;28;20082;-85
2023/03/11 09:08:35;;;;;;;47.95;8.52;;;;;;;18.76;58.05;98584.75;4976163;28;20091;-85
2023/03/11 09:11:01;;;;;;;30.15;8.52;;;;;;;18.51;58.83;98586.72;4973048;28;20474;-86
2023/03/11 09:13:27;;;;;;;38.08;8.52;;;;;;;18.25;59.67;98565.19;4974280;28;20034;-84
2023/03/11 09:15:53;;;;;;;31.60;7.47;;;;;;;18.09;62.40;98565.75;4973718;28;20034;-87
2023/03/11 09:18:19;;;;;;;37.17;7.13;;;;;;;17.66;66.06;98571.13;4973359;28;20027;-87
2023/03/11 09:20:44;;;;;;;34.13;6.20;;;;;;;17.05;70.26;98577.09;4973942;28;20598;-87
2023/03/11 09:23:12;;;;;;;45.08;7.70;;;;;;;17.00;71.32;98614.91;4977507;28;20027;-84
2023/03/11 09:25:38;;;;;;;31.17;5.80;;;;;;;16.88;72.07;98621.25;4993762;28;20315;-84
2023/03/11 09:28:04;;;;;;;19.67;4.07;;;;;;;16.95;69.14;98633.72;4994602;28;20019;-86
2023/03/11 09:30:29;;;;;;;17.00;4.13;;;;;;;16.88;69.00;98638.34;4972560;28;20129;-89
2023/03/11 09:32:55;;;;;;;13.00;4.32;;;;;;;16.76;68.49;98648.19;4974922;28;20035;-90
2023/03/11 09:35:20;;;;;;;13.63;3.85;;;;;;;16.46;69.27;98650.50;4974026;28;20030;-89
2023/03/11 09:37:46;;;;;;;22.63;4.20;;;;;;;16.39;69.83;98665.16;4973924;28;20031;-90
2023/03/11 09:40:17;;;;;;;17.73;4.80;;;;;;;16.47;70.90;98678.47;4971723;28;20165;-89
2023/03/11 09:43:00;;;;;;;13.80;5.23;;;;;;;16.39;71.98;98670.56;4972503;28;20027;-89
2023/03/11 09:45:45;;;;;;;14.95;4.60;;;;;;;16.38;73.42;98671.59;4972417;28;20482;-86
2023/03/11 09:48:27;;;;;;;15.20;5.03;;;;;;;16.26;74.16;98666.81;4973199;28;20031;-88
2023/03/11 09:51:02;;;;;;;15.13;4.10;;;;;;;16.23;75.34;98656.38;4972701;28;20117;-86
2023/03/11 09:53:42;;;;;;;17.38;4.78;;;;;;;16.23;75.93;98659.09;4973647;28;20042;-88
2023/03/11 09:56:14;;;;;;;11.18;4.60;;;;;;;16.19;76.39;98651.56;4975358;28;20082;-86
2023/03/11 09:58:39;;;;;;;13.88;4.85;;;;;;;16.14;76.77;98630.50;4973277;28;20035;-87
2023/03/11 10:01:32;;;;;;;11.35;4.45;;;;;;;16.10;76.96;98607.56;4974478;28;20123;-86
2023/03/11 10:04:13;;;;;;;16.48;4.25;;;;;;;16.11;77.43;98609.25;4974319;28;20061;-87
2023/03/11 10:06:41;;;;;;;7.65;4.35;;;;;;;16.15;77.50;98609.63;4972534;28;20048;-87
2023/03/11 10:09:19;;;;;;;8.50;3.83;;;;;;;16.31;77.64;98592.94;4973020;28;20034;-87
2023/03/11 10:11:56;;;;;;;11.77;4.10;;;;;;;16.53;77.59;98593.53;4972345;28;20037;-86
2023/03/11 10:14:33;;;;;;;6.78;4.25;;;;;;;16.72;78.21;98601.66;4975973;28;20454;-86
2023/03/11 10:17:30;;;;;;;11.93;4.00;;;;;;;16.76;77.42;98602.03;4978048;28;20505;-85
2023/03/11 10:20:03;;;;;;;9.35;3.65;;;;;;;16.85;76.22;98611.63;4980108;28;20037;-89
2023/03/11 10:22:38;;;;;;;8.32;4.15;;;;;;;16.98;75.40;98619.72;4993896;28;20015;-86
2023/03/11 10:25:14;;;;;;;14.73;6.30;;;;;;;17.01;75.15;98622.00;4996688;28;20091;-88
2023/03/11 10:27:47;;;;;;;10.43;4.82;;;;;;;17.02;74.23;98607.38;4979160;28;20036;-90
2023/03/11 10:30:34;;;;;;;9.02;5.10;;;;;;;17.21;74.96;98584.75;4975481;28;20026;-92
2023/03/11 10:33:22;;;;;;;10.13;5.28;;;;;;;17.42;74.43;98580.84;4972574;28;20031;-92
2023/03/11 10:35:54;;;;;;;15.18;6.10;;;;;;;17.56;72.93;98578.91;4974199;28;20023;-92
2023/03/11 10:38:25;;;;;;;8.87;4.70;;;;;;;17.68;72.86;98574.44;4975619;28;20047;-95
2023/03/11 10:40:55;;;;;;;11.85;4.32;;;;;;;17.75;71.72;98569.78;4975152;28;20376;-94
2023/03/11 10:43:33;;;;;;;5.45;3.70;;;;;;;17.80;70.38;98570.78;4983430;28;20070;-94
2023/03/11 10:46:03;;;;;;;6.68;3.83;;;;;;;17.69;69.66;98582.38;4982563;28;20045;-90
2023/03/11 10:48:28;;;;;;;10.02;3.60;;;;;;;17.62;69.80;98580.75;4983579;28;20046;-89
2023/03/11 10:51:01;;;;;;;5.15;3.45;;;;;;;17.50;70.09;98580.59;4986881;28;20034;-89
2023/03/11 10:53:28;;;;;;;7.28;3.55;;;;;;;17.41;70.34;98580.03;4988374;28;20046;-88
2023/03/11 10:55:55;;;;;;;10.60;4.32;;;;;;;17.44;70.18;98573.31;5000237;28;20023;-81
2023/03/11 10:58:24;;;;;;;5.97;3.30;;;;;;;17.49;70.12;98556.38;5001645;28;20103;-83
2023/03/11 11:01:09;;;;;;;6.57;3.15;;;;;;;17.68;68.67;98552.69;5000975;28;20047;-83
2023/03/11 11:03:35;;;;;;;5.03;3.28;;;;;;;17.75;69.12;98558.91;4963543;28;20031;-89
2023/03/11 11:06:29;;;;;;;5.78;3.00;;;;;;;17.94;68.64;98547.88;4963289;29;20056;-82
2023/03/11 11:09:12;;;;;;;7.63;3.53;;;;;;;18.06;68.35;98539.81;4940450;29;20048;-91
2023/03/11 11:11:38;;;;;;;5.50;2.53;;;;;;;18.10;67.54;98532.88;4924429;29;20440;-88
2023/03/11 11:14:04;;;;;;;5.57;2.70;;;;;;;18.34;67.19;98532.00;4926127;29;20044;-87
2023/03/11 11:16:32;;;;;;;6.10;2.85;;;;;;;18.46;66.78;98527.50;4925004;29;20044;-88
2023/03/11 11:19:08;;;;;;;4.68;3.08;;;;;;;18.56;66.16;98520.72;4932076;29;20127;-82
2023/03/11 11:21:44;;;;;;;7.60;2.97;;;;;;;18.55;64.91;98505.44;4943309;29;20036;-87
2023/03/11 11:24:30;;;;;;;9.23;5.30;;;;;;;18.58;65.25;98502.25;4936239;29;20108;-92
2023/03/11 11:27:10;;;;;;;4.57;2.38;;;;;;;18.77;64.06;98514.81;4905018;29;20052;-89
2023/03/11 11:29:36;;;;;;;6.15;2.90;;;;;;;18.64;62.95;98510.34;4927620;29;20032;-91
2023/03/11 11:32:23;;;;;;;5.65;2.70;;;;;;;18.72;62.39;98525.53;4919895;29;20032;-90